Αρχική σελίδα
METAR-TAF:

METAR-TAF

Αεροδρόμια :

Κορόρ, Babeldaob, Παλάου

γεωγραφικό πλάτος: 07-22N, γεωγραφικό μήκος: 134-32E, υψόμετρο: 54 μ

Παρών καιρός

Η αναφορά έγινε 52 λεπτά πριν, στις 23:54 UTC
Άνεμος 6 kt από BA
Θερμοκρασία 28°C
Υγρασία 89%
Πίεση 1011 hPa
Ορατότητα: 22.5 χλμ
Λίγα νέφη σε ύψος 1000 πόδια
Διάσπαρτα νέφη σε ύψος 1600 πόδια, Σωρείτες καθέτου αναπτύξεως.
Αρκετά νέφη σε ύψος 12000 πόδια
Αρκετά νέφη σε ύψος 30000 πόδια

METAR: PTRO 112354Z 05006KT 14SM FEW010 SCT016TCU BKN120 BKN300 28/26 A2984 RMK TCU NE-SE

Χρόνος: 09:46 (00:46 UTC)

Πρόγνωση Καιρού

Η αναφορά έγινε 1 ώρα και 12 λεπτά πριν, στις 23:34 UTC
Η πρόγνωση ισχύει από τις 12 στις 00 UTC έως τις 12 στις 24 UTC
Άνεμος 10 kt από Α/BA
Ορατότητα: 10 χλμ
Διάσπαρτα νέφη σε ύψος 1600 πόδια
Διάσπαρτα νέφη σε ύψος 12000 πόδια
Όμβροι σε κοντινή απόσταση

TAF: PTRO 112334Z 1200/1224 07010KT P6SM VCSH SCT016 SCT120

Μετεωρολογικές αναφορές και προγνώσεις για περισσότερα από 4000 αεροδρόμια (δελτία METAR και TAF).

Οι διαθέσιμοι σταθμοί απεικονίζονται στο χάρτη με κίτρινες και κόκκινες κουκκίδες.

Μετακινήστε το ποντίκι πάνω από τις κουκκίδες για να δείτε το όνομα του σταθμού.

Στη συνέχεια, κάντε κλικ για να δείτε τις μετεωρολογικές αναφορές και τις προγνώσεις καιρού.

Για να αλλάξετε το χάρτη: κάντε κλικ στα πράσινα κουμπιά με τον μαύρο σταυρό για να ζουμάρετε, στο πράσινο κουμπί με την παύλα για να αφαιρέσετε το ζουμ ή στα πράσινα βέλη για να αντιπαραβάλλετε χάρτες.


METAR-TAF: